createdAt,value
2016-07-21T00:00:38.809Z,99.99
2016-07-21T00:01:38.905Z,99.99
2016-07-21T00:02:38.885Z,99.99
2016-07-21T00:03:38.892Z,99.99
2016-07-21T00:04:38.887Z,99.99
2016-07-21T00:05:38.816Z,99.99
2016-07-21T00:06:38.829Z,99.99
2016-07-21T00:07:38.831Z,99.99
2016-07-21T00:08:38.831Z,99.99
2016-07-21T00:09:38.900Z,99.99
2016-07-21T00:10:38.827Z,99.99
2016-07-21T00:11:38.855Z,99.99
2016-07-21T00:12:38.841Z,99.99
2016-07-21T00:13:38.845Z,99.99
2016-07-21T00:14:38.851Z,99.99
2016-07-21T00:15:38.930Z,99.99
2016-07-21T00:16:38.946Z,99.99
2016-07-21T00:17:38.926Z,99.99
2016-07-21T00:18:38.934Z,99.99
2016-07-21T00:19:38.868Z,99.99
2016-07-21T00:20:38.856Z,99.99
2016-07-21T00:21:38.943Z,99.99
2016-07-21T00:22:38.948Z,99.99
2016-07-21T00:24:53.616Z,99.99
2016-07-21T00:25:53.612Z,99.99
2016-07-21T00:26:53.688Z,99.99
2016-07-21T00:27:53.698Z,99.99
2016-07-21T00:28:53.624Z,99.99
2016-07-21T00:29:53.620Z,99.99
2016-07-21T00:30:53.688Z,99.99
2016-07-21T00:31:53.707Z,99.99
2016-07-21T00:32:53.698Z,99.99
2016-07-21T00:33:53.708Z,99.99
2016-07-21T00:34:53.704Z,99.99
2016-07-21T00:35:53.717Z,99.99
2016-07-21T00:36:53.649Z,99.99
2016-07-21T00:37:53.644Z,99.99
2016-07-21T00:38:53.719Z,99.99
2016-07-21T00:39:53.654Z,99.99
2016-07-21T00:40:53.662Z,99.99
2016-07-21T00:41:53.651Z,99.99
2016-07-21T00:42:53.748Z,99.99
2016-07-21T00:43:53.660Z,99.99
2016-07-21T00:44:53.737Z,99.99
2016-07-21T00:45:53.660Z,99.99
2016-07-21T00:46:53.669Z,99.99
2016-07-21T00:47:53.670Z,99.99
2016-07-21T00:48:53.749Z,99.99
2016-07-21T00:49:53.749Z,99.99
2016-07-21T00:50:53.683Z,99.99
2016-07-21T00:51:53.752Z,99.99
2016-07-21T00:52:53.755Z,99.99
2016-07-21T00:53:53.763Z,99.99
2016-07-21T00:54:53.766Z,99.99
2016-07-21T00:55:53.769Z,99.99
2016-07-21T00:56:53.697Z,99.99
2016-07-21T00:57:53.775Z,99.99
2016-07-21T00:58:53.695Z,99.99
2016-07-21T00:59:53.708Z,99.99
2016-07-21T01:00:53.705Z,99.99
2016-07-21T01:01:53.712Z,99.99
2016-07-21T01:02:53.795Z,99.99
2016-07-21T01:03:53.809Z,99.99
2016-07-21T01:04:53.790Z,99.99
2016-07-21T01:05:53.797Z,99.99
2016-07-21T01:06:53.735Z,99.99
2016-07-21T01:07:53.795Z,99.99
2016-07-21T01:08:53.802Z,99.99
2016-07-21T01:09:53.745Z,99.99
2016-07-21T01:10:53.741Z,99.99
2016-07-21T01:11:53.849Z,99.99
2016-07-21T01:12:53.746Z,99.99
2016-07-21T01:13:53.744Z,99.99
2016-07-21T01:14:53.754Z,99.99
2016-07-21T01:15:53.753Z,99.99
2016-07-21T01:16:53.828Z,99.99
2016-07-21T01:17:53.761Z,99.99
2016-07-21T01:18:53.834Z,99.99
2016-07-21T01:19:53.839Z,99.99
2016-07-21T01:20:53.764Z,99.99
2016-07-21T01:21:53.844Z,99.99
2016-07-21T01:22:53.773Z,99.99
2016-07-21T01:23:53.774Z,99.99
2016-07-21T01:24:53.780Z,99.99
2016-07-21T01:25:53.853Z,99.99
2016-07-21T01:26:53.789Z,99.99
2016-07-21T01:27:53.787Z,99.99
2016-07-21T01:28:53.783Z,99.99
2016-07-21T01:29:53.793Z,99.99
2016-07-21T01:30:53.798Z,99.99
2016-07-21T01:31:53.875Z,99.99
2016-07-21T01:32:53.800Z,99.99
2016-07-21T01:33:53.808Z,99.99
2016-07-21T01:34:53.801Z,99.99
2016-07-21T01:35:53.806Z,99.99
2016-07-21T01:36:53.831Z,99.99
2016-07-21T01:37:53.890Z,99.99
2016-07-21T01:38:53.816Z,99.99
2016-07-21T01:39:53.823Z,99.99
2016-07-21T01:40:53.830Z,99.99
2016-07-21T01:41:53.822Z,99.99
2016-07-21T01:42:53.906Z,99.99
2016-07-21T01:43:53.834Z,99.99
2016-07-21T01:44:53.909Z,99.99
2016-07-21T01:45:53.837Z,99.99
2016-07-21T01:46:53.837Z,99.99
2016-07-21T01:47:53.920Z,99.99
2016-07-21T01:48:53.843Z,99.99
2016-07-21T01:49:53.843Z,99.99
2016-07-21T01:50:53.850Z,99.99
2016-07-21T01:51:53.927Z,99.99
2016-07-21T01:52:53.849Z,99.99
2016-07-21T01:53:53.928Z,99.99
2016-07-21T01:54:53.869Z,99.99
2016-07-21T01:55:53.876Z,99.99
2016-07-21T01:56:53.944Z,99.99
2016-07-21T01:57:53.876Z,99.99
2016-07-21T01:58:53.868Z,99.99
2016-07-21T01:59:53.869Z,99.99
2016-07-21T02:00:53.878Z,99.99
2016-07-21T02:01:53.879Z,99.99
2016-07-21T02:02:53.889Z,99.99
2016-07-21T02:03:53.966Z,99.99
2016-07-21T02:04:53.899Z,99.99
2016-07-21T02:05:53.890Z,99.99
2016-07-21T02:06:53.896Z,99.99
2016-07-21T02:07:53.903Z,99.99
2016-07-21T02:08:53.980Z,99.99
2016-07-21T02:09:53.898Z,99.99
2016-07-21T02:10:53.906Z,99.99
2016-07-21T02:11:53.914Z,99.99
2016-07-21T02:12:53.912Z,99.99
2016-07-21T02:13:53.918Z,99.99
2016-07-21T02:14:53.926Z,99.99
2016-07-21T02:15:54.003Z,99.99
2016-07-21T02:16:53.920Z,99.99
2016-07-21T02:17:53.992Z,99.99
2016-07-21T02:18:53.939Z,99.99
2016-07-21T02:19:53.930Z,99.99
2016-07-21T02:20:53.937Z,99.99
2016-07-21T02:21:54.010Z,99.99
2016-07-21T02:22:54.009Z,99.99
2016-07-21T02:23:54.018Z,99.99
2016-07-21T02:24:54.020Z,99.99
2016-07-21T02:25:54.036Z,99.99
2016-07-21T02:26:53.955Z,99.99
2016-07-21T02:27:54.027Z,99.99
2016-07-21T02:28:53.959Z,99.99
2016-07-21T02:29:54.045Z,99.99
2016-07-21T02:30:54.046Z,99.99
2016-07-21T02:31:54.042Z,99.99
2016-07-21T02:32:53.971Z,99.99
2016-07-21T02:33:53.969Z,99.99
2016-07-21T02:34:54.063Z,99.99
2016-07-21T02:35:54.066Z,99.99
2016-07-21T02:36:54.065Z,99.99
2016-07-21T02:37:53.983Z,99.99
2016-07-21T02:38:54.062Z,99.99
2016-07-21T02:39:54.063Z,99.99
2016-07-21T02:40:54.075Z,99.99
2016-07-21T02:41:53.992Z,99.99
2016-07-21T02:42:54.082Z,99.99
2016-07-21T02:43:54.077Z,99.99
2016-07-21T02:44:54.074Z,99.99
2016-07-21T02:45:54.079Z,99.99
2016-07-21T02:46:54.008Z,99.99
2016-07-21T02:47:54.083Z,99.99
2016-07-21T02:48:54.111Z,99.99
2016-07-21T02:49:54.098Z,99.99
2016-07-21T02:50:54.016Z,99.99
2016-07-21T02:51:54.018Z,99.99
2016-07-21T02:52:54.105Z,99.99
2016-07-21T02:53:54.102Z,99.99
2016-07-21T02:54:54.107Z,99.99
2016-07-21T02:55:54.031Z,99.99
2016-07-21T02:56:54.105Z,99.99
2016-07-21T02:57:54.039Z,99.99
2016-07-21T02:58:54.049Z,99.99
2016-07-21T02:59:54.041Z,99.99
2016-07-21T03:00:54.047Z,99.99
2016-07-21T03:01:54.051Z,99.99
2016-07-21T03:02:54.126Z,99.99
2016-07-21T03:03:54.073Z,99.99
2016-07-21T03:04:54.057Z,99.99
2016-07-21T03:05:54.142Z,99.99
2016-07-21T03:06:54.150Z,99.99
2016-07-21T03:07:54.152Z,99.99
2016-07-21T03:08:54.135Z,99.99
2016-07-21T03:09:54.152Z,99.99
2016-07-21T03:10:54.076Z,99.99
2016-07-21T03:11:54.158Z,99.99
2016-07-21T03:12:54.079Z,99.99
2016-07-21T03:13:54.160Z,99.99
2016-07-21T03:14:54.100Z,99.99
2016-07-21T03:15:54.164Z,99.99
2016-07-21T03:16:54.093Z,99.99
2016-07-21T03:17:54.102Z,99.99
2016-07-21T03:18:54.096Z,99.99
2016-07-21T03:19:54.124Z,99.99
2016-07-21T03:20:54.134Z,99.99
2016-07-21T03:21:54.118Z,99.99
2016-07-21T03:22:54.266Z,99.99
2016-07-21T03:23:54.205Z,99.99
2016-07-21T03:24:54.114Z,99.99
2016-07-21T03:25:54.121Z,99.99
2016-07-21T03:26:54.194Z,99.99
2016-07-21T03:27:54.204Z,99.99
2016-07-21T03:28:54.126Z,99.99
2016-07-21T03:29:54.201Z,99.99
2016-07-21T03:30:54.143Z,99.99
2016-07-21T03:31:54.132Z,99.99
2016-07-21T03:32:54.216Z,99.99
2016-07-21T03:33:54.226Z,99.99
2016-07-21T03:34:54.223Z,99.99
2016-07-21T03:35:54.146Z,99.99
2016-07-21T03:36:54.148Z,99.99
2016-07-21T03:37:54.239Z,99.99
2016-07-21T03:38:54.247Z,99.99
2016-07-21T03:39:54.240Z,99.99
2016-07-21T03:40:54.232Z,99.99
2016-07-21T03:41:54.243Z,99.99
2016-07-21T03:42:54.171Z,99.99
2016-07-21T03:43:54.165Z,99.99
2016-07-21T03:44:54.169Z,99.99
2016-07-21T03:45:54.177Z,99.99
2016-07-21T03:46:54.273Z,99.99
2016-07-21T03:47:54.179Z,99.99
2016-07-21T03:48:54.197Z,99.99
2016-07-21T03:49:54.261Z,99.99
2016-07-21T03:50:54.202Z,99.99
2016-07-21T03:51:54.211Z,99.99
2016-07-21T03:52:54.274Z,99.99
2016-07-21T03:53:54.196Z,99.99
2016-07-21T03:54:54.226Z,99.99
2016-07-21T03:55:54.200Z,99.99
2016-07-21T03:56:54.206Z,99.99
2016-07-21T03:57:54.227Z,99.99
2016-07-21T03:58:54.285Z,99.99
2016-07-21T03:59:54.212Z,99.99
2016-07-21T04:00:54.285Z,99.99
2016-07-21T04:01:54.292Z,99.99
2016-07-21T04:03:54.306Z,99.99
2016-07-21T04:04:54.304Z,99.99
2016-07-21T04:05:54.304Z,99.99
2016-07-21T04:06:54.318Z,99.99
2016-07-21T04:07:54.240Z,99.99
2016-07-21T04:08:54.323Z,99.99
2016-07-21T04:09:54.262Z,99.99
2016-07-21T04:10:54.347Z,99.99
2016-07-21T04:11:54.253Z,99.99
2016-07-21T04:12:54.281Z,99.99
2016-07-21T04:13:54.336Z,99.99
2016-07-21T04:14:54.256Z,99.99
2016-07-21T04:15:54.346Z,99.99
2016-07-21T04:16:54.334Z,99.99
2016-07-21T04:17:54.354Z,99.99
2016-07-21T04:18:54.364Z,99.99
2016-07-21T04:19:54.357Z,99.99
2016-07-21T04:20:54.341Z,99.99
2016-07-21T04:21:54.295Z,99.99
2016-07-21T04:22:54.287Z,99.99
2016-07-21T04:23:54.287Z,99.99
2016-07-21T04:24:54.289Z,99.99
2016-07-21T04:25:54.373Z,99.99
2016-07-21T04:26:54.374Z,99.99
2016-07-21T04:27:54.295Z,99.99
2016-07-21T04:28:54.300Z,99.99
2016-07-21T04:29:54.304Z,99.99
2016-07-21T04:30:54.393Z,99.99
2016-07-21T04:31:54.401Z,99.99
2016-07-21T04:32:54.307Z,99.99
2016-07-21T04:33:54.378Z,99.99
2016-07-21T04:34:54.323Z,99.99
2016-07-21T04:35:54.388Z,99.99
2016-07-21T04:36:54.396Z,99.99
2016-07-21T04:37:54.319Z,99.99
2016-07-21T04:38:54.322Z,99.99
2016-07-21T04:39:54.328Z,99.99
2016-07-21T04:40:54.346Z,99.99
2016-07-21T04:41:54.417Z,99.99
2016-07-21T04:42:54.404Z,99.99
2016-07-21T04:43:54.338Z,99.99
2016-07-21T04:44:54.344Z,99.99
2016-07-21T04:45:54.423Z,99.99
2016-07-21T04:46:54.420Z,99.99
2016-07-21T04:47:54.420Z,99.99
2016-07-21T04:48:54.429Z,99.99
2016-07-21T04:49:54.358Z,99.99
2016-07-21T04:50:54.431Z,99.99
2016-07-21T04:51:54.361Z,99.99
2016-07-21T04:52:54.395Z,99.99
2016-07-21T04:53:54.447Z,99.99
2016-07-21T04:54:54.448Z,99.99
2016-07-21T04:55:54.369Z,99.99
2016-07-21T04:56:54.375Z,99.99
2016-07-21T04:57:54.381Z,99.99
2016-07-21T04:58:54.383Z,99.99
2016-07-21T04:59:54.470Z,99.99
2016-07-21T05:00:54.384Z,99.99
2016-07-21T05:01:54.467Z,99.99
2016-07-21T05:02:54.398Z,99.99
2016-07-21T05:03:54.469Z,99.99
2016-07-21T05:04:54.402Z,99.99
2016-07-21T05:05:54.412Z,99.99
2016-07-21T05:06:54.492Z,99.99
2016-07-21T05:07:54.490Z,99.99
2016-07-21T05:08:54.406Z,99.99
2016-07-21T05:09:54.495Z,99.99
2016-07-21T05:10:54.426Z,99.99
2016-07-21T05:11:54.492Z,99.99
2016-07-21T05:12:54.424Z,99.99
2016-07-21T05:13:54.485Z,99.99
2016-07-21T05:14:54.504Z,99.99
2016-07-21T05:15:54.497Z,99.99
2016-07-21T05:16:54.502Z,99.99
2016-07-21T05:17:54.443Z,99.99
2016-07-21T05:18:54.439Z,99.99
2016-07-21T05:19:54.538Z,99.99
2016-07-21T05:20:54.443Z,99.99
2016-07-21T05:21:54.519Z,99.99
2016-07-21T05:22:54.534Z,99.99
2016-07-21T05:23:54.549Z,99.99
2016-07-21T05:24:54.545Z,99.99
2016-07-21T05:25:54.471Z,99.99
2016-07-21T05:26:54.456Z,99.99
2016-07-21T05:27:54.464Z,99.99
2016-07-21T05:28:54.466Z,99.99
2016-07-21T05:29:54.461Z,99.99
2016-07-21T05:30:54.467Z,99.99
2016-07-21T05:31:54.567Z,99.99
2016-07-21T05:32:54.477Z,99.99
2016-07-21T05:33:54.479Z,99.99
2016-07-21T05:34:54.492Z,99.99
2016-07-21T05:35:54.563Z,99.99
2016-07-21T05:36:54.476Z,99.99
2016-07-21T05:37:55.559Z,99.99
2016-07-21T05:38:54.500Z,99.99
2016-07-21T05:39:55.190Z,99.99
2016-07-21T05:40:54.570Z,99.99
2016-07-21T05:41:54.561Z,99.99
2016-07-21T05:42:54.582Z,99.99
2016-07-21T05:43:54.508Z,99.99
2016-07-21T05:44:54.515Z,99.99
2016-07-21T05:45:54.588Z,99.99
2016-07-21T05:46:54.586Z,99.99
2016-07-21T05:47:54.603Z,99.99
2016-07-21T05:48:54.593Z,99.99
2016-07-21T05:49:54.534Z,99.99
2016-07-21T05:50:54.614Z,99.99
2016-07-21T05:51:54.606Z,99.99
2016-07-21T05:52:54.626Z,99.99
2016-07-21T05:53:54.635Z,99.99
2016-07-21T05:54:54.621Z,99.99
2016-07-21T05:55:54.544Z,99.99
2016-07-21T05:56:54.620Z,99.99
2016-07-21T05:57:54.560Z,99.99
2016-07-21T05:58:56.035Z,99.99
2016-07-21T05:59:54.639Z,99.99
2016-07-21T06:00:54.548Z,99.99
2016-07-21T06:01:54.557Z,99.99
2016-07-21T06:02:54.558Z,99.99
2016-07-21T06:03:54.636Z,99.99
2016-07-21T06:04:54.634Z,99.99
2016-07-21T06:05:54.639Z,99.99
2016-07-21T06:06:54.571Z,99.99
2016-07-21T06:07:54.573Z,99.99
2016-07-21T06:08:54.669Z,99.99
2016-07-21T06:09:54.579Z,99.99
2016-07-21T06:10:54.653Z,99.99
2016-07-21T06:11:54.592Z,99.99
2016-07-21T06:12:54.589Z,99.99
2016-07-21T06:13:54.658Z,99.99
2016-07-21T06:14:54.603Z,99.99
2016-07-21T06:15:54.589Z,99.99
2016-07-21T06:16:54.672Z,99.99
2016-07-21T06:17:54.603Z,99.99
2016-07-21T06:18:54.607Z,99.99
2016-07-21T06:19:54.727Z,99.99
2016-07-21T06:20:54.689Z,99.99
2016-07-21T06:21:54.686Z,99.99
2016-07-21T06:22:54.627Z,99.99
2016-07-21T06:23:54.619Z,99.99
2016-07-21T06:24:54.620Z,99.99
2016-07-21T06:25:54.657Z,99.99
2016-07-21T06:26:54.680Z,99.99
2016-07-21T06:27:54.719Z,99.99
2016-07-21T06:28:54.719Z,99.99
2016-07-21T06:29:54.638Z,99.99
2016-07-21T06:30:54.720Z,99.99
2016-07-21T06:31:54.656Z,99.99
2016-07-21T06:32:54.657Z,99.99
2016-07-21T06:33:54.649Z,99.99
2016-07-21T06:34:54.657Z,99.99
2016-07-21T06:35:54.724Z,99.99
2016-07-21T06:36:54.742Z,99.99
2016-07-21T06:37:54.661Z,99.99
2016-07-21T06:38:54.749Z,99.99
2016-07-21T06:39:54.704Z,99.99
2016-07-21T06:40:54.668Z,99.99
2016-07-21T06:41:54.758Z,99.99
2016-07-21T06:42:54.681Z,99.99
2016-07-21T06:43:54.753Z,99.99
2016-07-21T06:44:54.746Z,99.99
2016-07-21T06:45:54.689Z,99.99
2016-07-21T06:46:54.688Z,99.99
2016-07-21T06:47:54.763Z,99.99
2016-07-21T06:48:54.720Z,99.99
2016-07-21T06:49:54.692Z,99.99
2016-07-21T06:50:54.805Z,99.99
2016-07-21T06:51:54.719Z,99.99
2016-07-21T06:52:54.779Z,99.99
2016-07-21T06:53:54.788Z,99.99
2016-07-21T06:54:54.712Z,99.99
2016-07-21T06:55:54.721Z,99.99
2016-07-21T06:56:54.790Z,99.99
2016-07-21T06:57:54.724Z,99.99
2016-07-21T06:58:54.723Z,99.99
2016-07-21T06:59:54.734Z,99.99
2016-07-21T07:00:54.739Z,99.99
2016-07-21T07:01:54.807Z,99.99
2016-07-21T07:02:54.825Z,99.99
2016-07-21T07:03:54.852Z,99.99
2016-07-21T07:04:54.742Z,99.99
2016-07-21T07:05:55.553Z,99.99
2016-07-21T07:06:54.852Z,99.99
2016-07-21T07:07:54.946Z,99.99
2016-07-21T07:08:54.838Z,99.99
2016-07-21T07:09:54.768Z,99.99
2016-07-21T07:10:54.826Z,99.99
2016-07-21T07:11:54.830Z,99.99
2016-07-21T07:12:54.838Z,99.99
2016-07-21T07:13:54.874Z,99.99
2016-07-21T07:14:54.774Z,99.99
2016-07-21T07:15:54.775Z,99.99
2016-07-21T07:16:54.773Z,99.99
2016-07-21T07:17:54.855Z,99.99
2016-07-21T07:18:54.785Z,99.99
2016-07-21T07:19:54.779Z,99.99
2016-07-21T07:20:54.864Z,99.99
2016-07-21T07:21:54.793Z,99.99
2016-07-21T07:22:54.870Z,99.99
2016-07-21T07:23:54.797Z,99.99
2016-07-21T07:24:54.876Z,99.99
2016-07-21T07:25:54.911Z,99.99
2016-07-21T07:26:55.361Z,99.99
2016-07-21T07:27:55.002Z,99.99
2016-07-21T07:28:55.226Z,99.99
2016-07-21T07:29:55.411Z,99.99
2016-07-21T07:30:55.120Z,99.99
2016-07-21T07:31:55.014Z,99.99
2016-07-21T07:32:55.524Z,99.99
2016-07-21T07:33:55.282Z,99.99
2016-07-21T07:34:54.925Z,99.99
2016-07-21T07:35:54.987Z,99.99
2016-07-21T07:36:54.906Z,99.99
2016-07-21T07:37:54.837Z,99.99
2016-07-21T07:38:54.912Z,99.99
2016-07-21T07:39:54.851Z,99.99
2016-07-21T07:40:54.910Z,99.99
2016-07-21T07:41:54.845Z,99.99
2016-07-21T07:42:54.964Z,99.99
2016-07-21T07:43:54.864Z,99.99
2016-07-21T07:44:54.932Z,99.99
2016-07-21T07:45:54.859Z,99.99
2016-07-21T07:46:54.929Z,99.99
2016-07-21T07:47:54.860Z,99.99
2016-07-21T07:48:54.957Z,99.99
2016-07-21T07:49:54.937Z,99.99
2016-07-21T07:50:54.953Z,99.99
2016-07-21T07:51:54.958Z,99.99
2016-07-21T07:52:54.971Z,99.99
2016-07-21T07:53:54.887Z,99.6
2016-07-21T07:54:54.966Z,99.69
2016-07-21T07:55:54.965Z,99.02
2016-07-21T07:56:54.958Z,98.83
2016-07-21T07:57:54.886Z,98.44
2016-07-21T07:58:54.899Z,98.73
2016-07-21T07:59:54.908Z,97.23
2016-07-21T08:00:54.915Z,97.42
2016-07-21T08:01:55.022Z,97.33
2016-07-21T08:02:55.019Z,97.91
2016-07-21T08:03:55.011Z,97.91
2016-07-21T08:04:54.995Z,97.67
2016-07-21T08:05:54.916Z,99.16
2016-07-21T08:06:55.074Z,97.62
2016-07-21T08:07:55.000Z,98
2016-07-21T08:08:55.388Z,96.41
2016-07-21T08:09:55.475Z,96.12
2016-07-21T08:10:56.706Z,96.07
2016-07-21T08:11:55.164Z,94.9
2016-07-21T08:12:56.655Z,95.39
2016-07-21T08:14:55.288Z,96.22
2016-07-21T08:15:55.042Z,96.8
2016-07-21T08:16:55.103Z,95.73
2016-07-21T08:17:54.967Z,95.97
2016-07-21T08:18:54.966Z,95.15
2016-07-21T08:19:54.990Z,95.49
2016-07-21T08:20:55.126Z,92.93
2016-07-21T08:21:54.986Z,93.45
2016-07-21T08:22:55.003Z,92
2016-07-21T08:23:55.098Z,91.71
2016-07-21T08:24:54.986Z,91.17
2016-07-21T08:25:55.065Z,89.96
2016-07-21T08:26:55.913Z,91.41
2016-07-21T08:27:55.105Z,88.51
2016-07-21T08:28:54.990Z,89.09
2016-07-21T08:29:54.990Z,87.63
2016-07-21T08:30:55.103Z,88.26
2016-07-21T08:31:55.049Z,87.38
2016-07-21T08:32:55.073Z,89.81
2016-07-21T08:33:55.030Z,88.65
2016-07-21T08:34:55.215Z,87.87
2016-07-21T08:35:55.076Z,88.1
2016-07-21T08:36:55.495Z,88.65
2016-07-21T08:37:55.041Z,89.32
2016-07-21T08:38:55.060Z,88.06
2016-07-21T08:39:55.016Z,88.35
2016-07-21T08:40:55.159Z,88.65
2016-07-21T08:41:55.024Z,85.97
2016-07-21T08:42:55.026Z,83.53
2016-07-21T08:43:55.099Z,82.29
2016-07-21T08:44:55.028Z,82.39
2016-07-21T08:45:55.159Z,82.45
2016-07-21T08:46:55.317Z,81.76
2016-07-21T08:47:55.048Z,80.79
2016-07-21T08:48:55.079Z,81.63
2016-07-21T08:49:55.039Z,82.31
2016-07-21T08:50:55.118Z,81.53
2016-07-21T08:51:55.057Z,80.94
2016-07-21T08:52:55.151Z,79.59
2016-07-21T08:53:55.069Z,81.43
2016-07-21T08:54:55.122Z,81.24
2016-07-21T08:55:55.138Z,82.27
2016-07-21T08:56:55.207Z,82.42
2016-07-21T08:57:55.076Z,80.66
2016-07-21T08:58:55.175Z,79.04
2016-07-21T08:59:55.147Z,80.4
2016-07-21T09:00:55.155Z,79.82
2016-07-21T09:01:55.899Z,78.56
2016-07-21T09:02:55.199Z,77.27
2016-07-21T09:03:55.231Z,75.91
2016-07-21T09:04:55.164Z,78.25
2016-07-21T09:05:55.167Z,78.69
2016-07-21T09:06:55.170Z,80.3
2016-07-21T09:07:55.179Z,80.07
2016-07-21T09:08:55.096Z,78.91
2016-07-21T09:09:55.179Z,77.68
2016-07-21T09:10:55.194Z,77.39
2016-07-21T09:11:55.112Z,76.78
2016-07-21T09:12:55.211Z,76.5
2016-07-21T09:13:55.191Z,77.56
2016-07-21T09:14:55.239Z,77.23
2016-07-21T09:15:55.134Z,76.59
2016-07-21T09:16:55.203Z,73.96
2016-07-21T09:17:55.222Z,75.16
2016-07-21T09:18:55.208Z,75.62
2016-07-21T09:19:55.139Z,75.85
2016-07-21T09:20:55.203Z,74.68
2016-07-21T09:21:55.145Z,73.8
2016-07-21T09:22:55.317Z,76.01
2016-07-21T09:23:55.151Z,76.55
2016-07-21T09:24:55.172Z,77.87
2016-07-21T09:25:55.245Z,79.88
2016-07-21T09:26:55.202Z,79.55
2016-07-21T09:27:55.267Z,78.09
2016-07-21T09:28:55.172Z,79.1
2016-07-21T09:29:55.182Z,80.62
2016-07-21T09:30:55.347Z,80.96
2016-07-21T09:31:55.525Z,78.97
2016-07-21T09:32:55.254Z,78.48
2016-07-21T09:33:55.275Z,79.59
2016-07-21T09:34:55.175Z,79.64
2016-07-21T09:35:55.178Z,79.64
2016-07-21T09:36:55.261Z,79.49
2016-07-21T09:37:55.197Z,79.1
2016-07-21T09:38:55.276Z,79.88
2016-07-21T09:39:55.267Z,80.62
2016-07-21T09:40:55.254Z,80.62
2016-07-21T09:41:55.197Z,79.94
2016-07-21T09:42:55.339Z,79.84
2016-07-21T09:43:55.282Z,80.29
2016-07-21T09:44:55.277Z,80.29
2016-07-21T09:45:55.205Z,80.77
2016-07-21T09:46:55.297Z,79.3
2016-07-21T09:47:55.214Z,78.17
2016-07-21T09:48:55.544Z,77.43
2016-07-21T09:49:55.268Z,77.48
2016-07-21T09:50:58.986Z,77.14
2016-07-21T09:51:55.316Z,77.58
2016-07-21T09:52:55.276Z,77.43
2016-07-21T09:53:55.327Z,77.62
2016-07-21T09:54:55.232Z,79.43
2016-07-21T09:55:55.238Z,79
2016-07-21T09:56:55.278Z,79
2016-07-21T09:57:55.252Z,80.27
2016-07-21T09:58:55.248Z,79.16
2016-07-21T09:59:55.344Z,80.66
2016-07-21T10:00:55.257Z,80.87
2016-07-21T10:01:55.329Z,81.55
2016-07-21T10:02:55.328Z,80.48
2016-07-21T10:03:55.364Z,79.39
2016-07-21T10:04:55.322Z,77.48
2016-07-21T10:05:55.292Z,78.94
2016-07-21T10:06:55.274Z,78.66
2016-07-21T10:07:55.386Z,77
2016-07-21T10:08:55.359Z,75.78
2016-07-21T10:09:55.368Z,75.95
2016-07-21T10:10:55.276Z,76.3
2016-07-21T10:11:55.355Z,76.01
2016-07-21T10:12:55.329Z,76.2
2016-07-21T10:13:56.393Z,76.59
2016-07-21T10:14:55.384Z,78.59
2016-07-21T10:15:55.388Z,77.39
2016-07-21T10:16:55.362Z,75.13
2016-07-21T10:17:55.379Z,73.8
2016-07-21T10:18:55.370Z,74.33
2016-07-21T10:19:55.300Z,72.9
2016-07-21T10:20:55.402Z,71.96
2016-07-21T10:21:55.374Z,72.84
2016-07-21T10:22:56.818Z,72.94
2016-07-21T10:23:55.334Z,72.61
2016-07-21T10:24:55.316Z,72.67
2016-07-21T10:25:55.341Z,72.71
2016-07-21T10:26:55.355Z,72.51
2016-07-21T10:27:55.351Z,72.61
2016-07-21T10:28:55.454Z,73.19
2016-07-21T10:29:55.381Z,73.71
2016-07-21T10:30:55.421Z,73.25
2016-07-21T10:31:55.384Z,72.19
2016-07-21T10:32:55.374Z,71.25
2016-07-21T10:33:55.349Z,70.5
2016-07-21T10:34:55.362Z,69.59
2016-07-21T10:35:55.445Z,69.69
2016-07-21T10:36:55.351Z,69.63
2016-07-21T10:37:55.352Z,69.63
2016-07-21T10:38:55.357Z,69.34
2016-07-21T10:39:55.363Z,70.67
2016-07-21T10:40:55.454Z,70.73
2016-07-21T10:41:55.445Z,70.83
2016-07-21T10:42:55.385Z,70.43
2016-07-21T10:43:55.466Z,71.02
2016-07-21T10:44:55.400Z,72.35
2016-07-21T10:45:55.381Z,72.71
2016-07-21T10:46:55.410Z,72.86
2016-07-21T10:47:55.389Z,74.52
2016-07-21T10:48:55.467Z,75.36
2016-07-21T10:49:55.414Z,75.62
2016-07-21T10:50:55.479Z,74.93
2016-07-21T10:51:55.429Z,73.71
2016-07-21T10:52:55.402Z,72.86
2016-07-21T10:53:55.479Z,72.61
2016-07-21T10:54:55.409Z,71.54
2016-07-21T10:55:55.406Z,72
2016-07-21T10:56:55.411Z,71.9
2016-07-21T10:57:55.487Z,72.8
2016-07-21T10:58:55.416Z,73.45
2016-07-21T10:59:55.527Z,73.74
2016-07-21T11:00:55.910Z,73.06
2016-07-21T11:01:55.455Z,75.85
2016-07-21T11:02:55.436Z,74.39
2016-07-21T11:03:55.440Z,74.78
2016-07-21T11:04:55.519Z,72.54
2016-07-21T11:05:55.442Z,71.64
2016-07-21T11:06:55.450Z,69.92
2016-07-21T11:07:55.449Z,69.69
2016-07-21T11:08:55.970Z,67.77
2016-07-21T11:09:55.489Z,67.38
2016-07-21T11:10:55.457Z,68.07
2016-07-21T11:11:55.531Z,68.42
2016-07-21T11:12:55.475Z,68.55
2016-07-21T11:13:55.543Z,68.52
2016-07-21T11:14:55.485Z,68.87
2016-07-21T11:15:55.660Z,69.3
2016-07-21T11:16:55.532Z,69.1
2016-07-21T11:17:55.554Z,68.62
2016-07-21T11:18:55.563Z,68.52
2016-07-21T11:19:55.473Z,68.23
2016-07-21T11:20:55.519Z,69.3
2016-07-21T11:21:55.574Z,70.08
2016-07-21T11:22:55.506Z,69.98
2016-07-21T11:23:55.507Z,69.07
2016-07-21T11:24:56.124Z,70.04
2016-07-21T11:25:55.563Z,69.82
2016-07-21T11:26:55.631Z,69.07
2016-07-21T11:27:55.531Z,68.32
2016-07-21T11:28:55.525Z,68.85
2016-07-21T11:29:55.519Z,66.86
2016-07-21T11:30:56.282Z,66.6
2016-07-21T11:31:55.597Z,65.88
2016-07-21T11:32:55.546Z,66.37
2016-07-21T11:33:55.736Z,65.91
2016-07-21T11:34:55.612Z,66.01
2016-07-21T11:35:55.603Z,66.17
2016-07-21T11:36:55.647Z,67.51
2016-07-21T11:37:55.632Z,67.87
2016-07-21T11:38:55.599Z,67.32
2016-07-21T11:39:55.566Z,66.66
2016-07-21T11:40:55.714Z,65.59
2016-07-21T11:41:55.648Z,65.1
2016-07-21T11:42:55.557Z,63.96
2016-07-21T11:43:55.646Z,63.93
2016-07-21T11:44:55.678Z,64.18
2016-07-21T11:45:55.576Z,64.87
2016-07-21T11:46:55.566Z,64.97
2016-07-21T11:47:55.569Z,63.53
2016-07-21T11:48:56.655Z,62.29
2016-07-21T11:49:55.828Z,60.88
2016-07-21T11:50:55.570Z,60.91
2016-07-21T11:51:56.223Z,59.53
2016-07-21T11:52:55.651Z,60.52
2016-07-21T11:53:55.585Z,61.27
2016-07-21T11:54:55.837Z,63.07
2016-07-21T11:55:55.592Z,64.22
2016-07-21T11:56:55.669Z,64.09
2016-07-21T11:57:55.596Z,63.04
2016-07-21T11:58:55.687Z,62.26
2016-07-21T11:59:55.629Z,63.07
2016-07-21T12:00:55.663Z,64.48
2016-07-21T12:01:55.648Z,65.88
2016-07-21T12:02:55.650Z,66.14
2016-07-21T12:03:55.735Z,66.34
2016-07-21T12:04:55.794Z,66.05
2016-07-21T12:05:55.630Z,66.73
2016-07-21T12:06:55.717Z,68.1
2016-07-21T12:07:55.621Z,67.77
2016-07-21T12:08:55.637Z,66.89
2016-07-21T12:09:55.709Z,66.7
2016-07-21T12:10:55.635Z,67.09
2016-07-21T12:11:55.654Z,66.6
2016-07-21T12:12:55.712Z,66.89
2016-07-21T12:13:55.733Z,66.7
2016-07-21T12:14:55.730Z,67.87
2016-07-21T12:15:55.686Z,66.5
2016-07-21T12:16:55.700Z,67.22
2016-07-21T12:17:55.661Z,67.38
2016-07-21T12:18:55.739Z,67.41
2016-07-21T12:19:55.752Z,67.32
2016-07-21T12:20:55.661Z,65.2
2016-07-21T12:21:55.762Z,65.59
2016-07-21T12:22:55.673Z,65.69
2016-07-21T12:23:55.686Z,64.84
2016-07-21T12:24:55.759Z,64.06
2016-07-21T12:25:55.674Z,64.09
2016-07-21T12:26:55.758Z,63.05
2016-07-21T12:27:55.711Z,61.83
2016-07-21T12:28:55.803Z,62.38
2016-07-21T12:29:55.733Z,62.52
2016-07-21T12:30:56.476Z,62.52
2016-07-21T12:31:55.699Z,63.11
2016-07-21T12:32:55.813Z,62.19
2016-07-21T12:33:55.789Z,63.21
2016-07-21T12:34:55.733Z,63.21
2016-07-21T12:35:55.707Z,62.42
2016-07-21T12:36:55.785Z,62.35
2016-07-21T12:37:55.797Z,64.22
2016-07-21T12:38:55.782Z,64.12
2016-07-21T12:39:55.784Z,64.15
2016-07-21T12:40:55.798Z,63.37
2016-07-21T12:41:55.816Z,62.23
2016-07-21T12:42:55.749Z,63.4
2016-07-21T12:43:55.847Z,64.09
2016-07-21T12:44:55.737Z,63.76
2016-07-21T12:45:55.742Z,62.35
2016-07-21T12:46:55.812Z,63.11
2016-07-21T12:47:55.745Z,60.76
2016-07-21T12:48:55.853Z,59.25
2016-07-21T12:49:55.919Z,58.62
2016-07-21T12:50:55.860Z,57.97
2016-07-21T12:52:55.832Z,56.82
2016-07-21T12:53:55.947Z,55.76
2016-07-21T12:54:55.941Z,54.32
2016-07-21T12:55:57.409Z,53.68
2016-07-21T12:56:55.992Z,52.62
2016-07-21T12:57:55.857Z,53.19
2016-07-21T12:58:55.776Z,53.68